Wynnburg, Tennessee
Current Conditions -  °F | °C
As of 6:35 AM on Sunday 23 Nov 2014 (Local Time) from KDYR Reporting Station
Overcast Overcast  
Wind Chill: 57°   Ceiling: 1500
Heat Index: 57°   Visibility: 10mi
Dew Point: 45°   Wind: 16mph
Humidity: 63%   Direction: 140°SE
Pressure: 29.79"   Gusts: 21mph
Location:  36.33°N, 89.47°W
Report Text: KDYR 231235Z 14014G18KT 10SM OVC015 14/07 A2979 RMK AO1
Loading
Personal Weather Stations






























Interactive Weather Map New forecast layout! Learn more

10-Day Weather Forecast

Advertisements
Track Severe Weather on mobile